Rubottom, Oklahoma
Current Conditions -  °F | °C
As of 3:35 AM on Friday 31 Oct 2014 (Local Time) from K1F0 Reporting Station
Clear Clear  
Wind Chill: 55°   Ceiling: Unl
Heat Index: 55°   Visibility: 10mi
Dew Point: 36°   Wind: 7mph
Humidity: 47%   Direction: 10°N
Pressure: 30.23"   Gusts: NA
Location:  34.156°N, 97.4228°W
Report Text: K1F0 310835Z AUTO 01006KT 10SM CLR 13/02 A3023 RMK AO2 LTG DSNT S
Loading
Personal Weather Stations






























Interactive Weather Map
Tropical Storm Tracking
New forecast layout! Learn more

10-Day Weather Forecast

Advertisements
Track Severe Weather on mobile